Beltdiep — PBYF — position and weather

sailwx.info

Track history (hours):
 
Tides and Currents Weather Stations Pressure Air Temp Water Temp Dewpoint Dewpoint Depression Visibility Wind Speed Wind Dir Waves Ship Positions

Beltdiep

Last reported at 2017-Feb-22 00:33 UTC. Time now 2017-Feb-22 06:41 UTC.
Position N 54°35' E 010°46'.

Length 107 m; draft 4.5 m.

Type: Cargo ship. MMSI: 246671000.

Date/timePositionNaut miles runAvg speedWind from/ knotsBaromVisibWave heightAir tempDewpointWater temp
2017-Feb-22 00:33N 54°35' E 010°46'9 9.0
2017-Feb-21 23:33N 54°36' E 011°02'8 8.0
2017-Feb-21 22:33N 54°35' E 011°15'8 7.9
2017-Feb-21 21:33N 54°32' E 011°28'8 8.4
2017-Feb-21 20:34N 54°28' E 011°41'8 7.6
2017-Feb-21 19:33N 54°26' E 011°54'8 7.7
2017-Feb-21 18:34N 54°27' E 012°07'7 7.1
2017-Feb-21 17:34N 54°33' E 012°13'7 7.3
2017-Feb-21 16:33N 54°39' E 012°20'61 7.6
2017-Feb-21 08:30N 54°42' E 014°05'  
2017-Feb-16 15:33N 55°30' E 015°15'1110.9
2017-Feb-16 14:33N 55°27' E 014°57'1110.6
2017-Feb-16 13:33N 55°23' E 014°39'1111.2
2017-Feb-16 12:33N 55°15' E 014°27'1111.0
2017-Feb-16 11:33N 55°06' E 014°14'1110.8
2017-Feb-16 10:32N 54°60' E 013°58'1110.8
2017-Feb-16 09:33N 54°56' E 013°41'1110.6
2017-Feb-16 08:33N 54°53' E 013°24'8 8.4
2017-Feb-16 07:33N 54°50' E 013°10'1110.9
2017-Feb-16 06:32N 54°46' E 012°52'1010.7
2017-Feb-16 05:33N 54°42' E 012°35'1110.6
2017-Feb-16 04:33N 54°36' E 012°20'1010.0
2017-Feb-16 03:33N 54°27' E 012°14'1010.5
2017-Feb-16 02:33N 54°24' E 011°56'1110.6
2017-Feb-16 01:33N 54°27' E 011°38'1110.8
2017-Feb-16 00:33N 54°31' E 011°22'1010.3
2017-Feb-15 23:33N 54°35' E 011°05'1010.2
2017-Feb-15 22:33N 54°34' E 010°48'1010.5
2017-Feb-15 21:33N 54°32' E 010°30'10 9.9
2017-Feb-15 20:31N 54°26' E 010°15'18 5.3
2017-Feb-15 17:13N 54°21' E 009°46'7 6.6
2017-Feb-15 16:07N 54°16' E 009°37'3 6.1
2017-Feb-15 15:33N 54°13' E 009°35'10 8.7
2017-Feb-15 14:24N 54°08' E 009°20'7 8.7
2017-Feb-15 13:33N 54°00' E 009°18'8 8.4
2017-Feb-15 12:33N 53°54' E 009°09'1 0.7
2017-Feb-15 11:33N 53°53' E 009°08'3 3.3
2017-Feb-15 10:34N 53°52' E 009°03'7 7.2
2017-Feb-15 09:33N 53°50' E 008°51'6 6.4
2017-Feb-15 08:34N 53°53' E 008°42'7 6.9
2017-Feb-15 07:33N 53°58' E 008°33'8 8.3
2017-Feb-15 06:33N 53°59' E 008°19'10 9.6
2017-Feb-15 05:33N 53°59' E 008°02'9 8.1
2017-Feb-15 04:28N 53°57' E 007°48'84 9.2
2017-Feb-14 19:23N 53°35' E 005°31'910.4
2017-Feb-14 18:31N 53°32' E 005°16'1010.5
2017-Feb-14 17:33N 53°29' E 005°01'11 9.6
2017-Feb-14 16:21N 53°25' E 004°42'11 9.7
2017-Feb-14 15:15N 53°15' E 004°35'8 9.8
2017-Feb-14 14:24N 53°08' E 004°28'8 9.8
2017-Feb-14 13:33N 53°00' E 004°22'9 9.6
2017-Feb-14 12:34N 52°52' E 004°15'9 9.4
2017-Feb-14 11:34N 52°44' E 004°07'9 9.2
2017-Feb-14 10:33N 52°37' E 003°56'12 9.5
2017-Feb-14 09:16N 52°28' E 003°43'8 9.8
2017-Feb-14 08:28N 52°22' E 003°33'2310.4
2017-Feb-14 06:17N 52°01' E 003°21'911.5
2017-Feb-14 05:31N 51°53' E 003°18'1010.6
2017-Feb-14 04:31N 51°42' E 003°18'1111.6
2017-Feb-14 03:34N 51°32' E 003°26'9 9.2
2017-Feb-14 02:33N 51°26' E 003°37'8 8.1
2017-Feb-14 01:34N 51°21' E 003°47'8 7.7
2017-Feb-14 00:33N 51°25' E 003°58'7 7.0
2017-Feb-13 23:33N 51°22' E 004°08'8 8.4
2017-Feb-13 22:34N 51°17' E 004°19'7 6.7
2017-Feb-13 21:34N 51°11' E 004°20'4 4.1
2017-Feb-13 20:34N 51°07' E 004°18'2 0.2
2017-Feb-13 08:22N 51°05' E 004°21'0 0.0
2017-Feb-13 07:28N 51°05' E 004°21'0 0.0
2017-Feb-12 05:10N 51°05' E 004°21'0 0.0
2017-Feb-12 04:22N 51°05' E 004°21'  
Track history (hours):
 
Tides and Currents Weather Stations Pressure Air Temp Water Temp Dewpoint Dewpoint Depression Visibility Wind Speed Wind Dir Waves Ship Positions

Beltdiep

Last reported at 2017-Feb-22 00:33 UTC. Time now 2017-Feb-22 06:41 UTC.
Position N 54°35' E 010°46'.

Length 107 m; draft 4.5 m.

Type: Cargo ship. MMSI: 246671000.

Date/timePositionNaut miles runAvg speedWind from/ knotsBaromVisibWave heightAir tempDewpointWater temp
2017-Feb-22 00:33N 54°35' E 010°46'9 9.0
2017-Feb-21 23:33N 54°36' E 011°02'8 8.0
2017-Feb-21 22:33N 54°35' E 011°15'8 7.9
2017-Feb-21 21:33N 54°32' E 011°28'8 8.4
2017-Feb-21 20:34N 54°28' E 011°41'8 7.6
2017-Feb-21 19:33N 54°26' E 011°54'8 7.7
2017-Feb-21 18:34N 54°27' E 012°07'7 7.1
2017-Feb-21 17:34N 54°33' E 012°13'7 7.3
2017-Feb-21 16:33N 54°39' E 012°20'61 7.6
2017-Feb-21 08:30N 54°42' E 014°05'  
2017-Feb-16 15:33N 55°30' E 015°15'1110.9
2017-Feb-16 14:33N 55°27' E 014°57'1110.6
2017-Feb-16 13:33N 55°23' E 014°39'1111.2
2017-Feb-16 12:33N 55°15' E 014°27'1111.0
2017-Feb-16 11:33N 55°06' E 014°14'1110.8
2017-Feb-16 10:32N 54°60' E 013°58'1110.8
2017-Feb-16 09:33N 54°56' E 013°41'1110.6
2017-Feb-16 08:33N 54°53' E 013°24'8 8.4
2017-Feb-16 07:33N 54°50' E 013°10'1110.9
2017-Feb-16 06:32N 54°46' E 012°52'1010.7
2017-Feb-16 05:33N 54°42' E 012°35'1110.6
2017-Feb-16 04:33N 54°36' E 012°20'1010.0
2017-Feb-16 03:33N 54°27' E 012°14'1010.5
2017-Feb-16 02:33N 54°24' E 011°56'1110.6
2017-Feb-16 01:33N 54°27' E 011°38'1110.8
2017-Feb-16 00:33N 54°31' E 011°22'1010.3
2017-Feb-15 23:33N 54°35' E 011°05'1010.2
2017-Feb-15 22:33N 54°34' E 010°48'1010.5
2017-Feb-15 21:33N 54°32' E 010°30'10 9.9
2017-Feb-15 20:31N 54°26' E 010°15'18 5.3
2017-Feb-15 17:13N 54°21' E 009°46'7 6.6
2017-Feb-15 16:07N 54°16' E 009°37'3 6.1
2017-Feb-15 15:33N 54°13' E 009°35'10 8.7
2017-Feb-15 14:24N 54°08' E 009°20'7 8.7
2017-Feb-15 13:33N 54°00' E 009°18'8 8.4
2017-Feb-15 12:33N 53°54' E 009°09'1 0.7
2017-Feb-15 11:33N 53°53' E 009°08'3 3.3
2017-Feb-15 10:34N 53°52' E 009°03'7 7.2
2017-Feb-15 09:33N 53°50' E 008°51'6 6.4
2017-Feb-15 08:34N 53°53' E 008°42'7 6.9
2017-Feb-15 07:33N 53°58' E 008°33'8 8.3
2017-Feb-15 06:33N 53°59' E 008°19'10 9.6
2017-Feb-15 05:33N 53°59' E 008°02'9 8.1
2017-Feb-15 04:28N 53°57' E 007°48'84 9.2
2017-Feb-14 19:23N 53°35' E 005°31'910.4
2017-Feb-14 18:31N 53°32' E 005°16'1010.5
2017-Feb-14 17:33N 53°29' E 005°01'11 9.6
2017-Feb-14 16:21N 53°25' E 004°42'11 9.7
2017-Feb-14 15:15N 53°15' E 004°35'8 9.8
2017-Feb-14 14:24N 53°08' E 004°28'8 9.8
2017-Feb-14 13:33N 53°00' E 004°22'9 9.6
2017-Feb-14 12:34N 52°52' E 004°15'9 9.4
2017-Feb-14 11:34N 52°44' E 004°07'9 9.2
2017-Feb-14 10:33N 52°37' E 003°56'12 9.5
2017-Feb-14 09:16N 52°28' E 003°43'8 9.8
2017-Feb-14 08:28N 52°22' E 003°33'2310.4
2017-Feb-14 06:17N 52°01' E 003°21'911.5
2017-Feb-14 05:31N 51°53' E 003°18'1010.6
2017-Feb-14 04:31N 51°42' E 003°18'1111.6
2017-Feb-14 03:34N 51°32' E 003°26'9 9.2
2017-Feb-14 02:33N 51°26' E 003°37'8 8.1
2017-Feb-14 01:34N 51°21' E 003°47'8 7.7
2017-Feb-14 00:33N 51°25' E 003°58'7 7.0
2017-Feb-13 23:33N 51°22' E 004°08'8 8.4
2017-Feb-13 22:34N 51°17' E 004°19'7 6.7
2017-Feb-13 21:34N 51°11' E 004°20'4 4.1
2017-Feb-13 20:34N 51°07' E 004°18'2 0.2
2017-Feb-13 08:22N 51°05' E 004°21'0 0.0
2017-Feb-13 07:28N 51°05' E 004°21'0 0.0
2017-Feb-12 05:10N 51°05' E 004°21'0 0.0
2017-Feb-12 04:22N 51°05' E 004°21'  

Dump ship's entire track history